createdAt,value
2023-04-23T00:01:49.038Z,36.90
2023-04-23T00:06:51.269Z,34.80
2023-04-23T00:11:52.459Z,35.90
2023-04-23T00:16:53.826Z,39.60
2023-04-23T00:21:54.910Z,52.70
2023-04-23T00:26:55.925Z,41.60
2023-04-23T00:31:57.376Z,39.30
2023-04-23T00:36:58.948Z,39.00
2023-04-23T00:42:06.367Z,33.30
2023-04-23T00:47:07.910Z,39.40
2023-04-23T00:52:09.020Z,43.60
2023-04-23T00:57:10.935Z,37.90
2023-04-23T01:02:12.406Z,39.90
2023-04-23T01:07:14.053Z,42.60
2023-04-23T01:12:16.817Z,37.50
2023-04-23T01:17:17.839Z,52.70
2023-04-23T01:22:18.979Z,44.00
2023-04-23T01:27:24.156Z,43.00
2023-04-23T01:32:25.719Z,45.40
2023-04-23T01:37:28.952Z,34.00
2023-04-23T01:42:29.942Z,23.80
2023-04-23T01:47:31.149Z,35.40
2023-04-23T01:52:32.154Z,40.20
2023-04-23T01:57:33.280Z,35.50
2023-04-23T02:02:35.063Z,38.10
2023-04-23T02:07:36.295Z,30.10
2023-04-23T02:12:38.070Z,27.60
2023-04-23T02:17:39.268Z,49.20
2023-04-23T02:22:41.954Z,37.70
2023-04-23T02:27:44.289Z,47.30
2023-04-23T02:32:45.305Z,37.80
2023-04-23T02:37:46.283Z,37.60
2023-04-23T02:42:48.688Z,42.00
2023-04-23T02:47:52.593Z,36.20
2023-04-23T02:52:53.789Z,41.20
2023-04-23T02:57:54.860Z,40.40
2023-04-23T03:02:56.181Z,38.50
2023-04-23T03:07:57.352Z,20.10
2023-04-23T03:12:58.381Z,32.30
2023-04-23T03:18:00.713Z,50.50
2023-04-23T03:23:02.378Z,43.90
2023-04-23T03:28:03.682Z,43.40
2023-04-23T03:33:04.810Z,44.70
2023-04-23T03:38:05.814Z,39.70
2023-04-23T03:43:08.466Z,42.70
2023-04-23T03:48:38.855Z,38.20
2023-04-23T03:53:45.458Z,39.40
2023-04-23T03:59:08.873Z,46.30
2023-04-23T04:04:10.330Z,42.80
2023-04-23T04:09:11.441Z,40.50
2023-04-23T04:14:13.451Z,36.50
2023-04-23T04:19:15.563Z,37.00
2023-04-23T04:24:17.687Z,42.00
2023-04-23T04:29:20.612Z,36.20
2023-04-23T04:34:22.506Z,41.70
2023-04-23T04:39:23.655Z,35.80
2023-04-23T04:44:24.638Z,43.40
2023-04-23T04:49:25.698Z,40.20
2023-04-23T04:54:26.750Z,38.70
2023-04-23T04:59:27.926Z,42.50
2023-04-23T05:04:29.103Z,40.70
2023-04-23T05:09:30.123Z,39.80
2023-04-23T05:14:31.234Z,33.10
2023-04-23T05:19:32.317Z,32.20
2023-04-23T05:24:33.574Z,34.50
2023-04-23T05:29:34.585Z,33.50
2023-04-23T05:34:35.606Z,36.00
2023-04-23T05:39:36.605Z,26.60
2023-04-23T05:44:37.722Z,24.30
2023-04-23T05:49:38.993Z,24.40
2023-04-23T05:54:41.463Z,22.50
2023-04-23T05:59:42.706Z,17.00
2023-04-23T06:04:43.877Z,9.80
2023-04-23T06:09:45.265Z,11.10
2023-04-23T06:14:46.920Z,12.30
2023-04-23T06:19:47.869Z,11.40
2023-04-23T06:24:48.910Z,16.00
2023-04-23T06:29:49.973Z,12.30
2023-04-23T06:35:00.769Z,13.60
2023-04-23T06:40:03.176Z,10.90
2023-04-23T06:45:06.395Z,10.50
2023-04-23T06:55:09.213Z,14.60
2023-04-23T07:00:11.047Z,13.30
2023-04-23T07:05:14.378Z,11.90
2023-04-23T07:10:17.783Z,11.20
2023-04-23T07:15:19.240Z,14.90
2023-04-23T07:20:20.311Z,12.30
2023-04-23T07:25:21.870Z,8.60
2023-04-23T07:30:25.196Z,11.20
2023-04-23T07:35:26.259Z,9.40
2023-04-23T07:40:27.634Z,10.30
2023-04-23T07:45:28.896Z,11.10
2023-04-23T07:50:30.131Z,8.60
2023-04-23T07:55:31.411Z,10.20
2023-04-23T08:00:32.405Z,6.60
2023-04-23T08:05:33.452Z,9.90
2023-04-23T08:10:35.218Z,11.60
2023-04-23T08:15:36.553Z,7.80
2023-04-23T08:20:37.832Z,10.00
2023-04-23T08:25:39.152Z,8.20
2023-04-23T08:30:40.226Z,8.40
2023-04-23T08:35:41.240Z,7.30
2023-04-23T08:40:44.541Z,7.90
2023-04-23T08:45:47.086Z,6.60
2023-04-23T08:50:48.759Z,5.10
2023-04-23T08:55:49.982Z,5.50
2023-04-23T09:00:51.276Z,7.70
2023-04-23T09:05:53.084Z,5.40
2023-04-23T09:10:59.984Z,7.10
2023-04-23T09:16:01.108Z,7.20
2023-04-23T09:21:03.768Z,5.70
2023-04-23T09:31:09.600Z,6.80
2023-04-23T09:36:13.585Z,9.40
2023-04-23T09:41:26.093Z,5.50
2023-04-23T09:46:41.689Z,7.20
2023-04-23T09:51:48.037Z,9.40
2023-04-23T09:56:50.934Z,4.20
2023-04-23T10:01:52.601Z,4.90
2023-04-23T10:07:13.754Z,5.70
2023-04-23T10:17:23.928Z,7.30
2023-04-23T10:22:30.394Z,4.40
2023-04-23T10:27:40.342Z,10.20
2023-04-23T10:32:54.575Z,6.10
2023-04-23T10:37:56.008Z,5.20
2023-04-23T10:42:58.879Z,5.70
2023-04-23T10:48:00.187Z,5.70
2023-04-23T10:53:03.142Z,6.30
2023-04-23T10:58:07.111Z,7.30
2023-04-23T11:03:38.004Z,5.90
2023-04-23T11:08:52.955Z,5.50
2023-04-23T11:13:53.974Z,5.00
2023-04-23T11:18:58.468Z,6.60
2023-04-23T11:24:01.732Z,9.40
2023-04-23T11:29:05.739Z,6.70
2023-04-23T11:34:09.014Z,5.40
2023-04-23T11:39:09.971Z,6.30
2023-04-23T11:44:11.166Z,7.30
2023-04-23T11:49:12.799Z,5.50
2023-04-23T11:54:14.710Z,5.60
2023-04-23T11:59:16.101Z,6.40
2023-04-23T12:04:31.321Z,8.10
2023-04-23T12:09:32.647Z,5.10
2023-04-23T12:14:33.619Z,9.00
2023-04-23T12:19:34.679Z,4.60
2023-04-23T12:24:53.818Z,6.80
2023-04-23T12:30:01.031Z,10.30
2023-04-23T12:35:05.429Z,4.90
2023-04-23T12:40:07.277Z,6.10
2023-04-23T12:45:09.538Z,7.30
2023-04-23T12:50:11.604Z,6.90
2023-04-23T12:55:12.874Z,5.40
2023-04-23T13:00:14.532Z,4.40
2023-04-23T13:05:15.674Z,4.60
2023-04-23T13:10:16.776Z,3.40
2023-04-23T13:15:19.338Z,4.80
2023-04-23T13:20:21.762Z,4.20
2023-04-23T13:25:23.382Z,7.00
2023-04-23T13:30:24.622Z,5.30
2023-04-23T13:35:25.882Z,7.20
2023-04-23T13:40:26.875Z,4.90
2023-04-23T13:45:38.910Z,4.70
2023-04-23T13:50:43.998Z,6.70
2023-04-23T13:55:45.032Z,6.50
2023-04-23T14:00:46.113Z,6.10
2023-04-23T14:05:47.387Z,5.30
2023-04-23T14:10:48.385Z,6.20
2023-04-23T14:15:49.891Z,5.30
2023-04-23T14:20:50.963Z,6.10
2023-04-23T14:25:57.726Z,6.50
2023-04-23T14:31:00.671Z,5.60
2023-04-23T14:36:01.797Z,5.50
2023-04-23T14:41:02.909Z,5.00
2023-04-23T14:46:04.082Z,6.90
2023-04-23T14:51:05.217Z,9.70
2023-04-23T14:56:06.697Z,6.60
2023-04-23T15:01:08.461Z,5.40
2023-04-23T15:06:10.641Z,4.30
2023-04-23T15:11:14.805Z,5.70
2023-04-23T15:16:36.423Z,6.80
2023-04-23T15:21:47.326Z,5.70
2023-04-23T15:26:49.037Z,8.50
2023-04-23T15:31:51.417Z,4.90
2023-04-23T15:36:52.754Z,4.40
2023-04-23T15:41:53.883Z,5.50
2023-04-23T15:46:55.118Z,5.70
2023-04-23T15:51:56.267Z,7.30
2023-04-23T15:56:57.261Z,6.30
2023-04-23T16:01:58.228Z,9.60
2023-04-23T16:06:59.508Z,8.20
2023-04-23T16:12:01.139Z,7.40
2023-04-23T16:17:02.116Z,5.20
2023-04-23T16:22:03.300Z,5.60
2023-04-23T16:27:06.012Z,4.80
2023-04-23T16:32:07.508Z,4.20
2023-04-23T16:37:09.078Z,5.30
2023-04-23T16:42:10.264Z,5.10
2023-04-23T16:47:11.288Z,4.60
2023-04-23T16:52:12.552Z,6.50
2023-04-23T16:57:13.532Z,6.20
2023-04-23T17:02:14.601Z,4.50
2023-04-23T17:07:15.767Z,6.50
2023-04-23T17:12:16.762Z,7.60
2023-04-23T17:17:17.773Z,10.80
2023-04-23T17:22:18.772Z,5.30
2023-04-23T17:27:19.828Z,8.70
2023-04-23T17:32:20.865Z,7.00
2023-04-23T17:37:21.849Z,7.50
2023-04-23T17:42:22.832Z,10.70
2023-04-23T17:47:24.798Z,10.10
2023-04-23T17:52:25.861Z,11.50
2023-04-23T17:57:26.850Z,11.10
2023-04-23T18:02:28.239Z,10.50
2023-04-23T18:07:29.586Z,13.00
2023-04-23T18:12:31.484Z,10.80
2023-04-23T18:17:32.566Z,9.60
2023-04-23T18:22:38.010Z,8.70
2023-04-23T18:27:39.238Z,6.50
2023-04-23T18:32:46.436Z,7.50
2023-04-23T18:37:52.213Z,7.10
2023-04-23T18:42:53.562Z,9.90
2023-04-23T18:48:05.538Z,9.00
2023-04-23T18:53:06.648Z,30.50
2023-04-23T18:58:07.692Z,34.30
2023-04-23T19:03:23.524Z,32.30
2023-04-23T19:08:28.052Z,27.90
2023-04-23T19:13:29.565Z,29.80
2023-04-23T19:18:31.146Z,20.40
2023-04-23T19:23:32.267Z,22.80
2023-04-23T19:28:33.644Z,19.40
2023-04-23T19:33:34.904Z,18.70
2023-04-23T19:38:36.019Z,19.30
2023-04-23T19:43:38.064Z,15.00
2023-04-23T19:48:39.200Z,17.30
2023-04-23T19:53:40.198Z,18.30
2023-04-23T19:58:41.935Z,17.30
2023-04-23T20:03:47.000Z,24.80
2023-04-23T20:09:07.027Z,13.80
2023-04-23T20:14:08.868Z,32.30
2023-04-23T20:19:11.534Z,19.40
2023-04-23T20:24:22.395Z,21.00
2023-04-23T20:29:23.705Z,27.00
2023-04-23T20:34:25.428Z,13.60
2023-04-23T20:39:26.442Z,19.80
2023-04-23T20:44:27.504Z,18.10
2023-04-23T20:49:28.438Z,16.20
2023-04-23T20:54:30.306Z,18.20
2023-04-23T20:59:31.472Z,21.20
2023-04-23T21:04:33.073Z,25.50
2023-04-23T21:09:35.126Z,19.90
2023-04-23T21:14:41.343Z,24.20
2023-04-23T21:19:42.916Z,17.70
2023-04-23T21:24:44.148Z,21.00
2023-04-23T21:29:46.242Z,21.50
2023-04-23T21:34:47.263Z,25.00
2023-04-23T21:39:49.045Z,22.70
2023-04-23T21:44:51.458Z,20.60
2023-04-23T21:50:12.878Z,32.50
2023-04-23T21:55:13.882Z,30.70
2023-04-23T22:00:17.256Z,30.00
2023-04-23T22:05:20.990Z,28.20
2023-04-23T22:10:22.261Z,27.70
2023-04-23T22:15:23.431Z,31.30
2023-04-23T22:20:24.608Z,24.50
2023-04-23T22:25:25.588Z,31.00
2023-04-23T22:30:26.686Z,29.80
2023-04-23T22:35:27.829Z,41.30
2023-04-23T22:40:28.873Z,50.40
2023-04-23T22:45:29.957Z,39.00
2023-04-23T22:50:31.033Z,31.20
2023-04-23T22:55:32.034Z,37.60
2023-04-23T23:00:33.184Z,27.40
2023-04-23T23:05:34.413Z,38.30
2023-04-23T23:10:39.241Z,35.10
2023-04-23T23:15:41.654Z,33.40
2023-04-23T23:20:44.558Z,31.50
2023-04-23T23:25:45.538Z,26.40
2023-04-23T23:30:48.635Z,36.40
2023-04-23T23:35:50.085Z,37.30
2023-04-23T23:41:11.290Z,26.10
2023-04-23T23:46:17.206Z,28.90
2023-04-23T23:51:20.495Z,25.10
2023-04-23T23:56:21.505Z,31.60
